Ama, LA

11:56 PM CDT on September 01, 2014 (GMT -0500)
Willowridge Estates | Change Station
CLOSE
Current Station
Personal Weather Station
Location: Luling, LA
Elevation: 14 ft
Nearby Weather Stations

Elev 14 ft 29.89 °N, 90.34 °W | Updated 3 minutes ago

Partly Cloudy
Partly Cloudy
77.8 °F
Feels Like 80 °F
N
0.0
Wind Variable Wind from WNW
Gusts 0.0 mph

Today
High -- | Low -- °F
--% Chance of Precip.
Yesterday
High -- | Low -- °F
Precip. -- in
6:38 AM 7:23 PM
Waxing Crescent, 47% visible
Pressure 30.04 in
Visibility 10.0 miles
Clouds Few 3000 ft
Scattered Clouds 9500 ft
Mostly Cloudy 25000 ft
Heat Index 80 °F
Dew Point 76 °F
Humidity 95%
Rainfall 0.05 in
Snow Depth Not available.
UV 0 out of 12
Pollen 8.50 out of 12
Ozone Good
PM2.5 Good
Flu Activity Not available.
METAR KMSY 020353Z 15004KT 10SM FEW030 SCT095 BKN250 27/24 A3003 RMK AO2 SLP173 OCNL LTGICCA DSNT SW CB DSNT SW T02720244

More Conditions Fewer Conditions

Pressure 30.04 in
Visibility 10.0 miles
Clouds Few 3000 ft
Scattered Clouds 9500 ft
Mostly Cloudy 25000 ft
Heat Index 80 °F
Dew Point 76 °F
Humidity 95%
Rainfall 0.05 in
Snow Depth Not available.
UV 0 out of 12
Pollen 8.50 out of 12
Ozone Good
PM2.5 Good
Flu Activity Not available.
METAR KMSY 020353Z 15004KT 10SM FEW030 SCT095 BKN250 27/24 A3003 RMK AO2 SLP173 OCNL LTGICCA DSNT SW CB DSNT SW T02720244

More Conditions Fewer Conditions

10-Day Weather Forecast

Almanac

Astronomy

Sep. 01, 2014 Rise Set
Actual Time 6:38 AM CDT 7:23 PM CDT
Civil Twilight 6:14 AM CDT 7:47 PM CDT
Nautical Twilight 5:45 AM CDT 8:16 PM CDT
Astronomical Twilight 5:16 AM CDT 8:45 PM CDT
Moon 12:54 PM CDT (9/1) 11:54 PM CDT (9/1)
Length of Visible Light 13h 33m
Length of Day
12h 45m
Tomorrow will be 1m 43s shorter.
Waxing Crescent, 47% of the Moon is Illuminated
Sep 2
Waxing Crescent
Sep 2
First Quarter
Sep 8
Full
Sep 15
Last Quarter
Sep 24
New

Yesterday's Extremes

State Highs State Lows

Community

WunderPhotos

Upload Photos

1,749,573 photos uploaded!

WunderBlogs® & News

Nearby

Air Quality

  Air Quality AQ Index Pollutant
Yesterday Moderate
PM2.5
Yesterday Good
OZONE
Current Good
PM2.5
Current Good
OZONE
Monday Moderate
PM2.5
Monday Good
OZONE
Tuesday Good
PM2.5
Tuesday Good
OZONE
Wednesday Good
PM2.5
Wednesday Good
OZONE

Snow Depth

Station Depth Elevation
No new snow has been reported.

Earthquake Activity

City Distance Mag. Time & Date
No recent earthquake activity has been reported nearby.
Minimum magnitude displayed is 2.5.

Coastal Water Temperatures

Place Temperature
New Canal, LA 81.0 °F
Shell Beach, LA 81.0 °F
Bayou Gauche, LA 84.0 °F

Nearby Weather Stations